Time;durP1;ratioP1;P1;durP2;ratioP2;P2;SDS_P1;SDS_P2;PMS_P1;PMS_P2;Temp;Humidity;BMP_temperature;BMP_pressure;BME280_temperature;BME280_humidity;BME280_pressure;Samples;Min_cycle;Max_cycle;Signal;HPM_P1;HPM_P2
2022/08/26 00:00:17;;;;;;;;;;;;;;;24.53;58.44;100222.25;7399416;19;1637;-42
2022/08/26 00:02:51;;;;;;;;;;;;;;;24.57;58.28;100226.28;7398368;19;1861;-42
2022/08/26 00:05:32;;;;;;;;;;;;;;;24.52;57.80;100217.88;7400103;19;1965;-41
2022/08/26 00:10:44;;;;;;;;;;;;;;;24.48;57.60;100215.69;7399902;19;2315;-41
2022/08/26 00:13:17;;;;;;;;;;;;;;;24.46;57.25;100213.16;7401467;19;1553;-41
2022/08/26 00:15:51;;;;;;;;;;;;;;;24.46;56.67;100213.16;7401251;19;1450;-42
2022/08/26 00:18:35;;;;;;;;;;;;;;;24.41;56.87;100180.44;7401063;19;1499;-41
2022/08/26 00:21:14;;;;;;;;;;;;;;;24.42;56.88;100201.06;7401594;19;1733;-42
2022/08/26 00:23:42;;;;;;;;;;;;;;;24.34;56.44;100199.28;7400652;19;1515;-42
2022/08/26 00:26:13;;;;;;;;;;;;;;;24.40;56.27;100195.00;7399667;19;1561;-41
2022/08/26 00:28:45;;;;;;;;;;;;;;;24.50;55.92;100211.81;7400589;19;1754;-42
2022/08/26 00:31:18;;;;;;;;;;;;;;;24.46;55.88;100206.94;7401146;19;1660;-42
2022/08/26 00:33:55;;;;;;;;;;;;;;;24.45;56.30;100173.63;7400196;19;1511;-41
2022/08/26 00:36:27;;;;;;;;;;;;;;;24.49;56.50;100199.31;7400452;19;1944;-42
2022/08/26 00:39:00;;;;;;;;;;;;;;;24.56;56.46;100208.34;7397192;19;1617;-42
2022/08/26 00:41:28;;;;;;;;;;;;;;;24.53;56.70;100197.94;7398038;19;1847;-42
2022/08/26 00:44:00;;;;;;;;;;;;;;;24.48;57.01;100199.47;7397999;19;1571;-42
2022/08/26 00:46:34;;;;;;;;;;;;;;;24.48;57.27;100211.13;7403996;19;1632;-42
2022/08/26 00:49:13;;;;;;;;;;;;;;;24.48;57.39;100210.28;7401982;19;1902;-42
2022/08/26 00:51:46;;;;;;;;;;;;;;;24.50;57.32;100195.59;7407517;19;1669;-42
2022/08/26 00:54:17;;;;;;;;;;;;;;;24.46;57.88;100188.84;7406920;19;1880;-41
2022/08/26 00:57:03;;;;;;;;;;;;;;;24.45;57.95;100211.47;7405672;19;1578;-42
2022/08/26 00:59:32;;;;;;;;;;;;;;;24.38;58.28;100200.56;7405593;19;1682;-42
2022/08/26 01:02:00;;;;;;;;;;;;;;;24.38;58.03;100200.56;7404930;19;1855;-42
2022/08/26 01:04:39;;;;;;;;;;;;;;;24.37;58.22;100198.06;7405250;19;1668;-42
2022/08/26 01:07:12;;;;;;;;;;;;;;;24.38;58.40;100183.53;7405543;19;1059;-42
2022/08/26 01:09:40;;;;;;;;;;;;;;;24.35;58.33;100206.38;7406026;19;1724;-42
2022/08/26 01:12:09;;;;;;;;;;;;;;;24.32;58.34;100195.09;7405593;19;1630;-42
2022/08/26 01:14:41;;;;;;;;;;;;;;;24.41;58.24;100200.22;7405314;19;1780;-42
2022/08/26 01:17:10;;;;;;;;;;;;;;;24.37;58.25;100206.16;7404806;19;1623;-42
2022/08/26 01:19:46;;;;;;;;;;;;;;;24.41;57.55;100205.63;7404907;19;1676;-42
2022/08/26 01:22:26;;;;;;;;;;;;;;;24.36;58.02;100201.78;7404017;19;1923;-42
2022/08/26 01:25:10;;;;;;;;;;;;;;;24.26;57.84;100204.75;7405103;19;1959;-42
2022/08/26 01:27:47;;;;;;;;;;;;;;;24.26;58.31;100214.72;7404060;19;1737;-42
2022/08/26 01:30:29;;;;;;;;;;;;;;;24.42;57.81;100217.28;7405087;19;1779;-42
2022/08/26 01:33:01;;;;;;;;;;;;;;;24.41;57.66;100220.97;7405392;19;1932;-42
2022/08/26 01:35:31;;;;;;;;;;;;;;;24.37;58.16;100211.56;7406019;19;1816;-42
2022/08/26 01:38:04;;;;;;;;;;;;;;;24.41;57.95;100221.84;7401558;19;2005;-42
2022/08/26 01:40:57;;;;;;;;;;;;;;;24.51;57.83;100218.91;7404078;19;1653;-42
2022/08/26 01:43:37;;;;;;;;;;;;;;;24.29;58.56;100227.88;7402576;19;1894;-42
2022/08/26 01:46:08;;;;;;;;;;;;;;;24.28;58.14;100220.78;7402663;19;1843;-42
2022/08/26 01:48:37;;;;;;;;;;;;;;;24.38;58.31;100226.78;7404148;19;1937;-43
2022/08/26 01:51:08;;;;;;;;;;;;;;;24.27;58.44;100235.31;7405176;19;1581;-43
2022/08/26 01:53:37;;;;;;;;;;;;;;;24.29;58.57;100230.56;7405395;19;1491;-41
2022/08/26 01:56:17;;;;;;;;;;;;;;;24.40;57.92;100216.63;7404834;19;1663;-42
2022/08/26 01:59:06;;;;;;;;;;;;;;;24.28;58.23;100213.53;7405002;19;1680;-41
2022/08/26 02:01:34;;;;;;;;;;;;;;;24.28;58.35;100229.72;7396321;19;3501;-64
2022/08/26 02:04:06;;;;;;;;;;;;;;;24.32;58.18;100224.81;7404912;19;1856;-58
2022/08/26 02:06:35;;;;;;;;;;;;;;;24.29;58.50;100231.44;7408524;19;1266;-58
2022/08/26 02:09:04;;;;;;;;;;;;;;;24.31;58.39;100231.22;7405932;19;1337;-58
2022/08/26 02:11:35;;;;;;;;;;;;;;;24.29;58.53;100227.88;7405314;19;1548;-64
2022/08/26 02:14:07;;;;;;;;;;;;;;;24.25;58.30;100223.84;7407250;19;1595;-64
2022/08/26 02:16:38;;;;;;;;;;;;;;;24.20;58.93;100236.03;7407931;19;1568;-58
2022/08/26 02:19:08;;;;;;;;;;;;;;;24.19;58.74;100220.88;7405800;19;1385;-58
2022/08/26 02:21:37;;;;;;;;;;;;;;;24.24;58.87;100214.91;7406033;19;1298;-64
2022/08/26 02:24:10;;;;;;;;;;;;;;;24.27;58.70;100211.00;7404994;19;1835;-64
2022/08/26 02:26:42;;;;;;;;;;;;;;;24.40;58.21;100227.41;7406545;19;1532;-58
2022/08/26 02:29:12;;;;;;;;;;;;;;;24.36;58.30;100223.41;7406633;19;1352;-58
2022/08/26 02:31:41;;;;;;;;;;;;;;;24.32;58.80;100222.09;7406585;19;1124;-63
2022/08/26 02:34:10;;;;;;;;;;;;;;;24.35;58.75;100224.41;7406902;19;1529;-58
2022/08/26 02:36:39;;;;;;;;;;;;;;;24.29;58.60;100214.34;7406612;19;1376;-58
2022/08/26 02:39:08;;;;;;;;;;;;;;;24.34;58.53;100220.88;7403250;19;1663;-58
2022/08/26 02:41:37;;;;;;;;;;;;;;;24.25;58.63;100227.38;7405642;19;1543;-58
2022/08/26 02:44:08;;;;;;;;;;;;;;;24.13;58.71;100224.31;7403356;19;1853;-64
2022/08/26 02:46:37;;;;;;;;;;;;;;;24.06;59.08;100228.75;7406331;19;1487;-58
2022/08/26 02:49:06;;;;;;;;;;;;;;;24.16;58.77;100226.63;7404881;19;1629;-58
2022/08/26 02:51:35;;;;;;;;;;;;;;;24.19;58.38;100236.22;7404910;19;1575;-64
2022/08/26 02:54:04;;;;;;;;;;;;;;;24.25;58.44;100234.66;7405125;19;1666;-64
2022/08/26 02:56:34;;;;;;;;;;;;;;;24.12;58.90;100229.88;7405210;19;1355;-58
2022/08/26 02:59:02;;;;;;;;;;;;;;;24.17;58.86;100225.63;7405383;19;1412;-58
2022/08/26 03:01:35;;;;;;;;;;;;;;;24.20;58.92;100230.66;7403131;19;1618;-58
2022/08/26 03:04:04;;;;;;;;;;;;;;;24.14;59.32;100231.38;7404330;19;1892;-58
2022/08/26 03:06:32;;;;;;;;;;;;;;;24.19;58.88;100220.88;7406549;19;1465;-58
2022/08/26 03:09:01;;;;;;;;;;;;;;;24.13;59.25;100227.00;7402982;19;1611;-63
2022/08/26 03:11:29;;;;;;;;;;;;;;;24.11;59.12;100229.03;7404540;19;1510;-58
2022/08/26 03:13:59;;;;;;;;;;;;;;;24.16;58.77;100229.34;7405931;19;1613;-64
2022/08/26 03:16:27;;;;;;;;;;;;;;;24.22;59.25;100234.00;7400828;19;1257;-58
2022/08/26 03:18:58;;;;;;;;;;;;;;;24.18;59.22;100242.66;7405002;19;1539;-64
2022/08/26 03:21:27;;;;;;;;;;;;;;;24.30;59.10;100243.06;7405884;19;1530;-64
2022/08/26 03:23:55;;;;;;;;;;;;;;;24.28;58.78;100242.41;7403776;19;1849;-64
2022/08/26 03:26:24;;;;;;;;;;;;;;;24.16;58.95;100250.94;7405332;19;1582;-63
2022/08/26 03:31:34;;;;;;;;;;;;;;;24.09;59.72;100249.97;7404199;19;1356;-58
2022/08/26 03:34:05;;;;;;;;;;;;;;;24.23;59.25;100251.03;7404790;19;1605;-57
2022/08/26 03:36:34;;;;;;;;;;;;;;;24.14;59.58;100253.00;7405634;19;952;-58
2022/08/26 03:39:02;;;;;;;;;;;;;;;24.07;59.62;100260.13;7401131;19;1508;-63
2022/08/26 03:41:31;;;;;;;;;;;;;;;24.19;59.36;100239.78;7402165;19;1618;-57
2022/08/26 03:44:00;;;;;;;;;;;;;;;24.25;59.20;100242.75;7397187;19;1854;-64
2022/08/26 03:46:28;;;;;;;;;;;;;;;24.30;58.69;100241.19;7400377;19;1519;-62
2022/08/26 03:48:57;;;;;;;;;;;;;;;24.21;59.05;100253.09;7403522;19;1382;-58
2022/08/26 03:51:28;;;;;;;;;;;;;;;24.18;59.11;100253.47;7404406;19;1535;-64
2022/08/26 03:53:57;;;;;;;;;;;;;;;24.07;58.72;100249.31;7401531;19;1263;-64
2022/08/26 03:56:26;;;;;;;;;;;;;;;23.94;58.87;100259.91;7402680;19;1275;-63
2022/08/26 03:58:54;;;;;;;;;;;;;;;23.81;59.04;100245.16;7403663;19;1729;-58
2022/08/26 04:01:23;;;;;;;;;;;;;;;23.71;59.03;100257.16;7400954;19;1590;-64
2022/08/26 04:04:00;;;;;;;;;;;;;;;23.87;58.67;100258.94;7400181;19;1873;-59
2022/08/26 04:06:33;;;;;;;;;;;;;;;23.95;57.99;100258.88;7400271;19;1870;-63
2022/08/26 04:09:03;;;;;;;;;;;;;;;23.83;58.08;100263.84;7400140;19;1266;-58
2022/08/26 04:11:32;;;;;;;;;;;;;;;23.92;58.15;100265.50;7401862;19;1190;-58
2022/08/26 04:14:01;;;;;;;;;;;;;;;23.88;57.88;100263.34;7402463;19;1342;-64
2022/08/26 04:16:30;;;;;;;;;;;;;;;23.88;58.20;100252.53;7402580;19;1352;-58
2022/08/26 04:18:58;;;;;;;;;;;;;;;23.81;58.02;100255.97;7402450;19;1451;-58
2022/08/26 04:21:28;;;;;;;;;;;;;;;23.88;58.08;100260.63;7406849;19;1331;-58
2022/08/26 04:23:59;;;;;;;;;;;;;;;23.81;58.13;100258.66;7408544;19;1856;-64
2022/08/26 04:26:27;;;;;;;;;;;;;;;23.81;58.51;100252.41;7406824;19;1224;-64
2022/08/26 04:28:56;;;;;;;;;;;;;;;23.87;58.52;100245.44;7410123;19;1341;-60
2022/08/26 04:31:25;;;;;;;;;;;;;;;23.64;58.45;100208.47;7410046;19;1304;-63
2022/08/26 04:33:55;;;;;;;;;;;;;;;23.98;58.38;100263.94;7408640;19;1640;-58
2022/08/26 04:36:24;;;;;;;;;;;;;;;24.17;58.16;100249.94;7409952;19;1034;-58
2022/08/26 04:38:53;;;;;;;;;;;;;;;24.09;59.46;100263.47;7408299;19;1500;-58
2022/08/26 04:41:24;;;;;;;;;;;;;;;24.06;58.94;100277.38;7410790;19;1391;-58
2022/08/26 04:43:53;;;;;;;;;;;;;;;24.12;59.49;100268.53;7408242;19;1842;-64
2022/08/26 04:46:23;;;;;;;;;;;;;;;24.19;59.38;100266.81;7409870;19;1382;-58
2022/08/26 04:48:52;;;;;;;;;;;;;;;24.15;59.55;100264.63;7407816;19;1502;-60
2022/08/26 04:51:26;;;;;;;;;;;;;;;24.12;59.67;100252.34;7409901;19;1336;-61
2022/08/26 04:53:55;;;;;;;;;;;;;;;24.17;58.69;100273.38;7407329;19;1265;-59
2022/08/26 04:56:28;;;;;;;;;;;;;;;24.16;58.96;100261.75;7407603;19;1225;-60
2022/08/26 04:58:56;;;;;;;;;;;;;;;24.21;59.25;100258.50;7407740;19;1151;-56
2022/08/26 05:01:25;;;;;;;;;;;;;;;24.20;59.43;100263.06;7407097;19;1374;-62
2022/08/26 05:03:54;;;;;;;;;;;;;;;24.19;59.88;100266.81;7407672;19;1849;-61
2022/08/26 05:06:22;;;;;;;;;;;;;;;24.19;59.47;100264.09;7409858;19;1117;-56
2022/08/26 05:08:51;;;;;;;;;;;;;;;24.31;59.13;100286.13;7407134;19;1412;-56
2022/08/26 05:11:19;;;;;;;;;;;;;;;24.31;59.98;100263.66;7407467;19;1380;-57
2022/08/26 05:13:50;;;;;;;;;;;;;;;24.28;59.51;100267.56;7407630;19;1489;-56
2022/08/26 05:16:19;;;;;;;;;;;;;;;24.39;59.06;100271.66;7407835;19;1339;-56
2022/08/26 05:18:47;;;;;;;;;;;;;;;24.24;59.72;100274.34;7408088;19;1259;-61
2022/08/26 05:21:20;;;;;;;;;;;;;;;24.25;59.60;100267.09;7407986;19;1453;-57
2022/08/26 05:23:50;;;;;;;;;;;;;;;24.26;59.91;100271.47;7407918;19;1853;-63
2022/08/26 05:26:21;;;;;;;;;;;;;;;24.29;59.77;100276.50;7409152;19;1846;-64
2022/08/26 05:28:52;;;;;;;;;;;;;;;24.42;59.28;100265.91;7406859;19;1665;-61
2022/08/26 05:31:22;;;;;;;;;;;;;;;24.42;59.44;100274.03;7405180;19;1628;-57
2022/08/26 05:33:50;;;;;;;;;;;;;;;24.51;59.31;100262.16;7408847;19;1635;-61
2022/08/26 05:36:20;;;;;;;;;;;;;;;24.49;59.72;100266.88;7407310;19;1379;-61
2022/08/26 05:38:48;;;;;;;;;;;;;;;24.52;60.79;100261.13;7407532;19;1488;-57
2022/08/26 05:41:18;;;;;;;;;;;;;;;24.59;60.21;100255.78;7407771;19;1317;-60
2022/08/26 05:43:46;;;;;;;;;;;;;;;24.71;59.91;100275.09;7407110;19;1860;-55
2022/08/26 05:46:17;;;;;;;;;;;;;;;24.69;59.94;100261.81;7406116;19;1491;-61
2022/08/26 05:48:46;;;;;;;;;;;;;;;24.69;59.98;100283.44;7407204;19;1643;-56
2022/08/26 05:51:14;;;;;;;;;;;;;;;24.69;59.94;100261.81;7406908;19;1234;-61
2022/08/26 05:53:43;;;;;;;;;;;;;;;24.68;60.03;100262.81;7406183;19;1218;-61
2022/08/26 05:56:12;;;;;;;;;;;;;;;24.68;59.99;100259.28;7406445;19;1310;-57
2022/08/26 05:58:42;;;;;;;;;;;;;;;24.69;59.98;100260.94;7407415;19;1305;-56
2022/08/26 06:01:13;;;;;;;;;;;;;;;24.72;60.14;100265.97;7406499;19;1282;-56
2022/08/26 06:03:46;;;;;;;;;;;;;;;24.72;60.10;100268.69;7407669;19;1855;-56
2022/08/26 06:06:16;;;;;;;;;;;;;;;24.72;60.31;100261.41;7405679;19;1792;-57
2022/08/26 06:08:45;;;;;;;;;;;;;;;24.72;60.24;100257.88;7406683;19;1281;-61
2022/08/26 06:11:14;;;;;;;;;;;;;;;24.76;60.11;100272.69;7407012;19;1359;-56
2022/08/26 06:13:43;;;;;;;;;;;;;;;24.75;60.09;100268.31;7407039;19;1366;-56
2022/08/26 06:16:12;;;;;;;;;;;;;;;24.73;60.21;100265.81;7406158;19;1281;-61
2022/08/26 06:18:42;;;;;;;;;;;;;;;24.76;60.31;100272.69;7406406;19;1308;-61
2022/08/26 06:21:17;;;;;;;;;;;;;;;24.75;60.47;100271.00;7407594;19;1023;-61
2022/08/26 06:26:27;;;;;;;;;;;;;;;24.77;60.40;100279.78;7407389;19;1257;-57
2022/08/26 06:28:56;;;;;;;;;;;;;;;24.78;60.27;100270.66;7405999;19;1693;-56
2022/08/26 06:31:24;;;;;;;;;;;;;;;24.78;60.42;100270.66;7405744;19;1519;-61
2022/08/26 06:33:53;;;;;;;;;;;;;;;24.76;60.49;100278.09;7406838;19;1359;-57
2022/08/26 06:36:25;;;;;;;;;;;;;;;24.75;60.62;100271.00;7407789;19;1054;-61
2022/08/26 06:38:56;;;;;;;;;;;;;;;24.78;60.66;100292.28;7403946;19;1465;-56
2022/08/26 06:41:25;;;;;;;;;;;;;;;24.74;60.47;100285.56;7406725;19;1278;-56
2022/08/26 06:43:53;;;;;;;;;;;;;;;24.76;60.52;100278.09;7402812;19;1846;-61
2022/08/26 06:46:23;;;;;;;;;;;;;;;24.80;60.49;100295.63;7405422;19;1317;-57
2022/08/26 06:48:52;;;;;;;;;;;;;;;24.78;60.71;100286.88;7404301;19;1258;-56
2022/08/26 06:51:21;;;;;;;;;;;;;;;24.78;60.59;100286.88;7405256;19;1301;-61
2022/08/26 06:53:54;;;;;;;;;;;;;;;24.75;60.74;100279.97;7404652;19;1379;-61
2022/08/26 06:56:24;;;;;;;;;;;;;;;24.78;60.56;100281.47;7406430;19;1292;-56
2022/08/26 06:58:53;;;;;;;;;;;;;;;24.78;60.86;100278.75;7404725;19;1373;-61
2022/08/26 07:01:23;;;;;;;;;;;;;;;24.79;60.64;100280.47;7402804;19;1317;-56
2022/08/26 07:03:52;;;;;;;;;;;;;;;24.79;60.42;100277.75;7404906;19;1849;-56
2022/08/26 07:06:21;;;;;;;;;;;;;;;24.80;60.56;100271.31;7407013;19;945;-57
2022/08/26 07:08:49;;;;;;;;;;;;;;;24.86;60.66;100296.78;7403945;19;1656;-61
2022/08/26 07:11:21;;;;;;;;;;;;;;;24.85;60.72;100278.84;7405658;19;1586;-61
2022/08/26 07:13:52;;;;;;;;;;;;;;;24.88;60.61;100276.63;7404305;19;1585;-58
2022/08/26 07:16:20;;;;;;;;;;;;;;;24.89;60.39;100290.97;7403846;19;1290;-61
2022/08/26 07:18:51;;;;;;;;;;;;;;;24.92;60.40;100283.31;7404315;19;1287;-56
2022/08/26 07:21:20;;;;;;;;;;;;;;;24.93;60.70;100287.72;7405861;19;1590;-61
2022/08/26 07:23:48;;;;;;;;;;;;;;;24.93;60.72;100287.72;7404628;19;1867;-61
2022/08/26 07:26:18;;;;;;;;;;;;;;;24.92;60.76;100287.91;7405444;19;1510;-61
2022/08/26 07:28:51;;;;;;;;;;;;;;;24.92;60.86;100283.31;7404704;19;1685;-56
2022/08/26 07:31:21;;;;;;;;;;;;;;;24.90;60.58;100289.97;7405070;19;1589;-61
2022/08/26 07:33:49;;;;;;;;;;;;;;;24.88;60.88;100278.50;7402124;19;1253;-56
2022/08/26 07:36:19;;;;;;;;;;;;;;;24.92;60.76;100283.31;7402361;19;1267;-56
2022/08/26 07:38:49;;;;;;;;;;;;;;;24.88;60.81;100270.38;7402539;19;1731;-61
2022/08/26 07:41:18;;;;;;;;;;;;;;;24.87;60.65;100269.53;7405147;19;1384;-61
2022/08/26 07:43:49;;;;;;;;;;;;;;;24.87;60.67;100263.28;7400974;19;1853;-61
2022/08/26 07:46:18;;;;;;;;;;;;;;;24.87;60.93;100274.09;7403514;19;1289;-61
2022/08/26 07:48:47;;;;;;;;;;;;;;;24.90;60.90;100265.63;7402726;19;1604;-56
2022/08/26 07:51:16;;;;;;;;;;;;;;;24.91;60.95;100278.97;7402890;19;1202;-61
2022/08/26 07:53:45;;;;;;;;;;;;;;;24.92;60.68;100275.22;7404672;19;1542;-61
2022/08/26 07:56:13;;;;;;;;;;;;;;;24.91;60.93;100278.97;7410416;19;1673;-61
2022/08/26 07:58:42;;;;;;;;;;;;;;;24.92;61.01;100266.28;7411211;19;1526;-61
2022/08/26 08:01:13;;;;;;;;;;;;;;;24.90;60.71;100261.03;7410820;19;1604;-56
2022/08/26 08:03:42;;;;;;;;;;;;;;;24.91;60.88;100278.97;7412110;19;1574;-61
2022/08/26 08:06:10;;;;;;;;;;;;;;;24.92;61.09;100271.69;7408134;19;1859;-61
2022/08/26 08:08:40;;;;;;;;;;;;;;;24.90;61.14;100268.31;7411439;19;1419;-61
2022/08/26 08:11:08;;;;;;;;;;;;;;;24.93;60.97;100274.22;7411875;19;1578;-61
2022/08/26 08:13:37;;;;;;;;;;;;;;;24.94;61.04;100277.75;7411311;19;1665;-61
2022/08/26 08:16:07;;;;;;;;;;;;;;;24.95;60.96;100272.16;7410382;19;1575;-61
2022/08/26 08:18:38;;;;;;;;;;;;;;;24.97;60.89;100267.38;7411826;19;1622;-56
2022/08/26 08:21:07;;;;;;;;;;;;;;;24.98;60.84;100255.53;7409517;19;1101;-57
2022/08/26 08:23:35;;;;;;;;;;;;;;;25.00;61.01;100260.75;7410214;19;1665;-61
2022/08/26 08:26:04;;;;;;;;;;;;;;;25.01;60.97;100266.00;7406746;19;1854;-61
2022/08/26 08:28:33;;;;;;;;;;;;;;;25.01;60.74;100265.16;7410665;19;1387;-56
2022/08/26 08:31:01;;;;;;;;;;;;;;;24.99;60.99;100265.34;7408078;19;1534;-61
2022/08/26 08:33:30;;;;;;;;;;;;;;;25.01;60.74;100257.88;7408774;19;1658;-61
2022/08/26 08:36:02;;;;;;;;;;;;;;;24.99;60.99;100259.94;7408753;19;1674;-61
2022/08/26 08:38:30;;;;;;;;;;;;;;;25.02;61.04;100246.00;7410223;19;1542;-61
2022/08/26 08:40:58;;;;;;;;;;;;;;;25.08;61.04;100249.84;7409324;19;1597;-61
2022/08/26 08:43:32;;;;;;;;;;;;;;;25.05;60.84;100238.53;7411298;19;1511;-56
2022/08/26 08:46:05;;;;;;;;;;;;;;;25.07;60.75;100240.06;7406764;19;1830;-61
2022/08/26 08:48:35;;;;;;;;;;;;;;;25.11;60.67;100241.34;7409394;19;1181;-56
2022/08/26 08:51:10;;;;;;;;;;;;;;;25.08;60.75;100227.34;7408546;19;1078;-60
2022/08/26 08:53:40;;;;;;;;;;;;;;;25.08;60.76;100211.97;7409758;19;1391;-61
2022/08/26 08:56:12;;;;;;;;;;;;;;;25.11;60.81;100218.84;7409550;19;1414;-61
2022/08/26 08:58:48;;;;;;;;;;;;;;;24.31;61.60;100225.81;7408579;19;1413;-56
2022/08/26 09:01:26;;;;;;;;;;;;;;;23.50;61.63;100225.44;7406568;19;1332;-56
2022/08/26 09:03:57;;;;;;;;;;;;;;;23.39;61.71;100229.38;7409236;19;1318;-61
2022/08/26 09:06:28;;;;;;;;;;;;;;;23.30;62.00;100211.53;7405460;19;1850;-61
2022/08/26 09:08:58;;;;;;;;;;;;;;;23.50;61.02;100195.75;7406700;19;1336;-56
2022/08/26 09:11:26;;;;;;;;;;;;;;;23.49;61.55;100205.69;7408046;19;1289;-60
2022/08/26 09:13:56;;;;;;;;;;;;;;;23.47;61.75;100217.69;7408459;19;1301;-58
2022/08/26 09:16:28;;;;;;;;;;;;;;;23.44;61.52;100210.78;7406262;19;1280;-57
2022/08/26 09:19:05;;;;;;;;;;;;;;;23.34;61.34;100205.63;7406566;19;1350;-59
2022/08/26 09:21:36;;;;;;;;;;;;;;;23.29;61.87;100205.31;7409070;19;1177;-66
2022/08/26 09:24:05;;;;;;;;;;;;;;;23.24;62.26;100207.72;7408506;19;1307;-62
2022/08/26 09:26:44;;;;;;;;;;;;;;;23.23;62.32;100206.00;7406422;19;1842;-65
2022/08/26 09:29:20;;;;;;;;;;;;;;;23.00;62.78;100201.38;7404515;19;1564;-65
2022/08/26 09:31:49;;;;;;;;;;;;;;;22.86;62.51;100194.03;7406917;19;1261;-57
2022/08/26 09:34:18;;;;;;;;;;;;;;;22.98;62.59;100187.25;7407593;19;1315;-66
2022/08/26 09:36:50;;;;;;;;;;;;;;;23.01;62.64;100186.03;7405984;19;1350;-61
2022/08/26 09:39:30;;;;;;;;;;;;;;;23.00;62.79;100193.28;7406613;19;1425;-56
2022/08/26 09:42:05;;;;;;;;;;;;;;;23.05;62.73;100186.56;7406701;19;1519;-54
2022/08/26 09:44:34;;;;;;;;;;;;;;;22.99;63.09;100190.78;7407990;19;1844;-65
2022/08/26 09:47:05;;;;;;;;;;;;;;;23.00;62.72;100171.72;7405151;19;1535;-57
2022/08/26 09:49:35;;;;;;;;;;;;;;;22.97;62.70;100180.16;7407026;19;1385;-57
2022/08/26 09:52:15;;;;;;;;;;;;;;;22.88;62.74;100208.19;7407484;19;1200;-56
2022/08/26 09:54:45;;;;;;;;;;;;;;;22.86;63.28;100177.88;7403182;19;1254;-65
2022/08/26 09:57:27;;;;;;;;;;;;;;;23.02;63.16;100203.94;7406250;19;1246;-66
2022/08/26 09:59:55;;;;;;;;;;;;;;;23.15;63.47;100209.59;7406608;19;1312;-67
2022/08/26 10:02:42;;;;;;;;;;;;;;;23.18;63.39;100203.03;7404826;19;1344;-66
2022/08/26 10:05:17;;;;;;;;;;;;;;;23.16;63.87;100211.28;7404941;19;2070;-67
2022/08/26 10:07:50;;;;;;;;;;;;;;;23.21;63.82;100197.25;7407810;19;1346;-61
2022/08/26 10:10:22;;;;;;;;;;;;;;;23.21;63.97;100197.25;7405875;19;1395;-56
2022/08/26 10:12:54;;;;;;;;;;;;;;;23.12;64.52;100192.91;7406414;19;1277;-56
2022/08/26 10:15:23;;;;;;;;;;;;;;;23.16;64.50;100205.88;7404018;19;1246;-65
2022/08/26 10:17:57;;;;;;;;;;;;;;;22.97;64.32;100196.31;7403423;19;1269;-56
2022/08/26 10:20:27;;;;;;;;;;;;;;;22.97;64.32;100182.84;7406737;19;1344;-67
2022/08/26 10:23:01;;;;;;;;;;;;;;;23.01;64.09;100186.03;7405340;19;1151;-65
2022/08/26 10:25:31;;;;;;;;;;;;;;;22.90;64.10;100183.72;7402505;19;1880;-56
2022/08/26 10:28:02;;;;;;;;;;;;;;;22.89;64.15;100193.69;7406204;19;1663;-57
2022/08/26 10:30:33;;;;;;;;;;;;;;;22.96;64.32;100189.28;7406129;19;1268;-57
2022/08/26 10:33:03;;;;;;;;;;;;;;;22.84;64.53;100188.81;7406313;19;1277;-68
2022/08/26 10:35:32;;;;;;;;;;;;;;;22.88;64.48;100175.84;7405924;19;1282;-64
2022/08/26 10:38:09;;;;;;;;;;;;;;;22.95;64.31;100182.19;7407218;19;1375;-62
2022/08/26 10:40:43;;;;;;;;;;;;;;;23.10;64.16;100184.16;7404270;19;1537;-60
2022/08/26 10:43:15;;;;;;;;;;;;;;;23.18;64.33;100178.75;7404456;19;1498;-62
2022/08/26 10:45:45;;;;;;;;;;;;;;;23.31;64.26;100176.28;7402376;19;1862;-64
2022/08/26 10:48:15;;;;;;;;;;;;;;;23.32;63.90;100190.63;7407082;19;1236;-59
2022/08/26 10:50:45;;;;;;;;;;;;;;;23.26;64.14;100180.53;7405847;19;1376;-57
2022/08/26 10:53:19;;;;;;;;;;;;;;;23.31;64.17;100176.28;7405292;19;1328;-57
2022/08/26 10:55:51;;;;;;;;;;;;;;;23.31;64.94;100161.97;7407715;19;1237;-63
2022/08/26 10:58:28;;;;;;;;;;;;;;;23.41;65.49;100163.41;7405743;19;1605;-63
2022/08/26 11:03:45;;;;;;;;;;;;;;;23.51;66.81;100154.22;7407454;19;1462;-58
2022/08/26 11:06:17;;;;;;;;;;;;;;;23.57;66.14;100156.22;7405821;19;1837;-61
2022/08/26 11:08:52;;;;;;;;;;;;;;;23.64;65.67;100162.56;7402069;19;1435;-61
2022/08/26 11:11:37;;;;;;;;;;;;;;;23.74;64.99;100165.88;7403982;19;1186;-58
2022/08/26 11:14:06;;;;;;;;;;;;;;;23.76;64.75;100153.03;7403593;19;1311;-62
2022/08/26 11:16:37;;;;;;;;;;;;;;;23.80;65.33;100154.38;7404081;19;1261;-57
2022/08/26 11:19:05;;;;;;;;;;;;;;;23.50;65.08;100149.88;7402411;19;1451;-57
2022/08/26 11:21:45;;;;;;;;;;;;;;;23.37;65.09;100143.19;7404333;19;1340;-61
2022/08/26 11:24:28;;;;;;;;;;;;;;;23.46;64.87;100145.81;7397822;19;1448;-63
2022/08/26 11:26:59;;;;;;;;;;;;;;;23.41;64.47;100146.38;7401103;19;1858;-62
2022/08/26 11:29:42;;;;;;;;;;;;;;;23.35;64.22;100149.78;7399003;19;1320;-61
2022/08/26 11:32:24;;;;;;;;;;;;;;;23.19;64.07;100151.56;7398863;19;1437;-58
2022/08/26 11:34:55;;;;;;;;;;;;;;;23.16;63.94;100159.22;7401417;19;1616;-61
2022/08/26 11:37:27;;;;;;;;;;;;;;;22.93;63.71;100157.25;7402207;19;1259;-57
2022/08/26 11:39:56;;;;;;;;;;;;;;;22.78;63.66;100141.00;7403046;19;1566;-57
2022/08/26 11:42:33;;;;;;;;;;;;;;;22.77;63.46;100142.00;7404130;19;1458;-61
2022/08/26 11:45:01;;;;;;;;;;;;;;;22.67;63.08;100132.47;7402378;19;1849;-63
2022/08/26 11:47:31;;;;;;;;;;;;;;;22.70;63.00;100140.16;7404027;19;1526;-57
2022/08/26 11:50:11;;;;;;;;;;;;;;;22.63;62.67;100142.75;7403942;19;1876;-61
2022/08/26 11:52:42;;;;;;;;;;;;;;;22.69;62.96;100146.59;7402131;19;1372;-57
2022/08/26 11:55:13;;;;;;;;;;;;;;;22.84;62.78;100139.47;7403911;19;1505;-58
2022/08/26 11:57:49;;;;;;;;;;;;;;;22.88;62.83;100130.00;7402425;19;1341;-57
2022/08/26 12:00:22;;;;;;;;;;;;;;;22.95;62.94;100128.25;7403106;19;1352;-60
2022/08/26 12:02:51;;;;;;;;;;;;;;;22.93;63.14;100135.69;7402513;19;1411;-58
2022/08/26 12:05:23;;;;;;;;;;;;;;;22.81;63.14;100118.22;7402360;19;1855;-61
2022/08/26 12:07:52;;;;;;;;;;;;;;;22.78;63.19;100127.53;7405607;19;1325;-62
2022/08/26 12:10:28;;;;;;;;;;;;;;;22.86;63.17;100118.56;7403994;19;1489;-61
2022/08/26 12:13:00;;;;;;;;;;;;;;;22.92;63.20;100127.75;7403200;19;1747;-57
2022/08/26 12:15:30;;;;;;;;;;;;;;;22.79;63.65;100112.19;7400558;19;1716;-57
2022/08/26 12:17:59;;;;;;;;;;;;;;;22.95;63.05;100109.38;7403409;19;1605;-57
2022/08/26 12:20:44;;;;;;;;;;;;;;;22.81;63.34;100104.75;7403229;19;1637;-57
2022/08/26 12:23:22;;;;;;;;;;;;;;;22.75;63.00;100100.91;7402552;19;1571;-62
2022/08/26 12:25:51;;;;;;;;;;;;;;;22.88;62.93;100099.47;7403273;19;1855;-57
2022/08/26 12:28:23;;;;;;;;;;;;;;;22.85;63.16;100098.00;7404047;19;1535;-57
2022/08/26 12:31:01;;;;;;;;;;;;;;;22.66;63.31;100091.19;7403237;19;1562;-61
2022/08/26 12:33:30;;;;;;;;;;;;;;;22.66;63.43;100087.63;7402852;19;1625;-61
2022/08/26 12:36:00;;;;;;;;;;;;;;;22.71;63.31;100098.75;7403770;19;1563;-62
2022/08/26 12:38:29;;;;;;;;;;;;;;;22.75;63.01;100083.91;7397739;19;1441;-61
2022/08/26 12:40:58;;;;;;;;;;;;;;;22.82;63.08;100079.50;7400970;19;1391;-61
2022/08/26 12:43:43;;;;;;;;;;;;;;;22.76;63.45;100080.16;7408554;19;1313;-62
2022/08/26 12:46:14;;;;;;;;;;;;;;;22.78;63.66;100072.75;7407957;19;1867;-57
2022/08/26 12:48:44;;;;;;;;;;;;;;;22.73;63.71;100089.47;7409738;19;1535;-62
2022/08/26 12:51:25;;;;;;;;;;;;;;;22.79;63.85;100074.44;7409159;19;1377;-57
2022/08/26 12:53:54;;;;;;;;;;;;;;;22.73;63.64;100075.16;7408199;19;1503;-60
2022/08/26 12:56:26;;;;;;;;;;;;;;;22.90;63.17;100067.78;7410322;19;1513;-61
2022/08/26 12:59:08;;;;;;;;;;;;;;;22.77;63.63;100063.00;7409312;19;1436;-61
2022/08/26 13:01:38;;;;;;;;;;;;;;;22.77;63.27;100071.09;7407175;19;1482;-61
2022/08/26 13:04:08;;;;;;;;;;;;;;;22.82;63.33;100066.00;7407360;19;1331;-62
2022/08/26 13:06:36;;;;;;;;;;;;;;;22.86;63.60;100071.88;7409901;19;1861;-59
2022/08/26 13:09:06;;;;;;;;;;;;;;;22.93;62.99;100070.97;7407344;19;1584;-57
2022/08/26 13:11:35;;;;;;;;;;;;;;;22.89;63.59;100066.13;7408671;19;1320;-57
2022/08/26 13:14:04;;;;;;;;;;;;;;;22.78;63.58;100067.34;7409022;19;1330;-60
2022/08/26 13:16:36;;;;;;;;;;;;;;;22.80;63.51;100062.63;7409583;19;1523;-57
2022/08/26 13:19:06;;;;;;;;;;;;;;;22.77;63.73;100071.09;7409351;19;1487;-61